Time;durP1;ratioP1;P1;durP2;ratioP2;P2;SDS_P1;SDS_P2;PMS_P1;PMS_P2;Temp;Humidity;BMP_temperature;BMP_pressure;BME280_temperature;BME280_humidity;BME280_pressure;Samples;Min_cycle;Max_cycle;Signal;HPM_P1;HPM_P2
2022/10/17 00:01:06;;;;;;;4.57;2.30;;;;;;;;;;4994819;28;20319;-76
2022/10/17 00:03:35;;;;;;;2.43;2.23;;;;;;;;;;4981603;28;20228;-75
2022/10/17 00:06:07;;;;;;;4.13;2.50;;;;;;;;;;4992626;28;20217;-75
2022/10/17 00:08:33;;;;;;;2.63;2.40;;;;;;;;;;4973953;28;20226;-75
2022/10/17 00:11:15;;;;;;;2.97;2.30;;;;;;;;;;4995085;28;20217;-75
2022/10/17 00:13:40;;;;;;;3.73;2.23;;;;;;;;;;4981796;28;20579;-75
2022/10/17 00:16:08;;;;;;;2.73;2.37;;;;;;;;;;4998537;28;20263;-76
2022/10/17 00:18:36;;;;;;;2.57;2.20;;;;;;;;;;4998052;28;20257;-76
2022/10/17 00:21:04;;;;;;;3.53;2.30;;;;;;;;;;4996535;28;20228;-76
2022/10/17 00:23:32;;;;;;;2.37;2.17;;;;;;;;;;4980849;28;20230;-76
2022/10/17 00:26:05;;;;;;;3.10;2.30;;;;;;;;;;4977374;28;20234;-76
2022/10/17 00:28:30;;;;;;;3.40;2.27;;;;;;;;;;4990541;28;20248;-76
2022/10/17 00:31:00;;;;;;;4.93;2.30;;;;;;;;;;4968091;28;20232;-75
2022/10/17 00:33:26;;;;;;;2.30;2.10;;;;;;;;;;4969779;28;20228;-76
2022/10/17 00:36:05;;;;;;;2.33;2.10;;;;;;;;;;4996260;28;20237;-75
2022/10/17 00:38:31;;;;;;;2.63;1.93;;;;;;;;;;4973722;28;20232;-75
2022/10/17 00:40:59;;;;;;;3.03;2.20;;;;;;;;;;5000167;28;20315;-76
2022/10/17 00:43:28;;;;;;;5.57;2.33;;;;;;;;;;4994478;28;20228;-76
2022/10/17 00:45:58;;;;;;;1.97;1.67;;;;;;;;;;4996210;28;20794;-75
2022/10/17 00:48:27;;;;;;;5.33;1.93;;;;;;;;;;4993635;28;20983;-75
2022/10/17 00:50:55;;;;;;;2.70;2.00;;;;;;;;;;4990040;28;20258;-75
2022/10/17 00:53:20;;;;;;;1.70;1.60;;;;;;;;;;4971605;28;20230;-75
2022/10/17 00:55:51;;;;;;;2.43;1.53;;;;;;;;;;4984332;28;20228;-75
2022/10/17 00:58:18;;;;;;;1.40;1.30;;;;;;;;;;4980188;28;20225;-75
2022/10/17 01:00:45;;;;;;;2.77;1.93;;;;;;;;;;4979180;28;20244;-75
2022/10/17 01:03:10;;;;;;;3.70;1.90;;;;;;;;;;4989295;28;20225;-75
2022/10/17 01:05:41;;;;;;;4.33;2.00;;;;;;;;;;4989647;28;20680;-75
2022/10/17 01:08:06;;;;;;;5.87;1.60;;;;;;;;;;4969749;28;20253;-76
2022/10/17 01:10:46;;;;;;;2.57;1.70;;;;;;;;;;4970425;28;20311;-75
2022/10/17 01:13:25;;;;;;;1.60;1.50;;;;;;;;;;4961249;28;20583;-75
2022/10/17 01:16:00;;;;;;;1.87;1.50;;;;;;;;;;4964185;28;20276;-75
2022/10/17 01:18:56;;;;;;;2.60;1.65;;;;;;;;;;4967750;28;20618;-75
2022/10/17 01:21:29;;;;;;;3.00;1.90;;;;;;;;;;4979491;28;20222;-76
2022/10/17 01:24:31;;;;;;;3.10;1.73;;;;;;;;;;4993231;28;20224;-75
2022/10/17 01:27:06;;;;;;;1.70;1.60;;;;;;;;;;4984913;28;20229;-75
2022/10/17 01:30:01;;;;;;;1.80;1.50;;;;;;;;;;5000241;28;20260;-76
2022/10/17 01:32:36;;;;;;;4.23;1.90;;;;;;;;;;5005106;28;20227;-75
2022/10/17 01:35:31;;;;;;;2.23;2.00;;;;;;;;;;4988754;28;20296;-76
2022/10/17 01:38:02;;;;;;;2.73;1.90;;;;;;;;;;4981705;28;20234;-75
2022/10/17 01:40:33;;;;;;;2.17;1.97;;;;;;;;;;5012245;28;20261;-74
2022/10/17 01:43:04;;;;;;;2.20;2.00;;;;;;;;;;4982531;28;20226;-75
2022/10/17 01:45:36;;;;;;;1.90;1.70;;;;;;;;;;4981450;28;20364;-75
2022/10/17 01:48:06;;;;;;;2.03;1.73;;;;;;;;;;4979795;28;20585;-75
2022/10/17 01:50:34;;;;;;;4.10;2.03;;;;;;;;;;4978351;28;20315;-75
2022/10/17 01:53:30;;;;;;;3.33;1.80;;;;;;;;;;4968992;28;20312;-75
2022/10/17 01:55:56;;;;;;;3.43;1.97;;;;;;;;;;4959622;28;20325;-75
2022/10/17 01:58:43;;;;;;;1.77;1.67;;;;;;;;;;4982142;28;20253;-75
2022/10/17 02:01:08;;;;;;;1.67;1.57;;;;;;;;;;4994427;28;20307;-75
2022/10/17 02:03:36;;;;;;;3.00;1.93;;;;;;;;;;4972750;28;20689;-75
2022/10/17 02:06:04;;;;;;;2.07;1.90;;;;;;;;;;4960748;28;20296;-75
2022/10/17 02:08:41;;;;;;;3.27;1.90;;;;;;;;;;4959112;28;20285;-76
2022/10/17 02:11:21;;;;;;;3.70;2.00;;;;;;;;;;4962663;28;20224;-74
2022/10/17 02:14:09;;;;;;;2.50;2.00;;;;;;;;;;4970438;28;20220;-75
2022/10/17 02:16:41;;;;;;;2.50;1.90;;;;;;;;;;5001174;28;20221;-75
2022/10/17 02:19:35;;;;;;;3.07;1.83;;;;;;;;;;4980534;28;20237;-76
2022/10/17 02:22:26;;;;;;;4.10;2.40;;;;;;;;;;5000685;28;20331;-75
2022/10/17 02:25:01;;;;;;;2.07;1.97;;;;;;;;;;4979729;28;20224;-75
2022/10/17 02:27:57;;;;;;;2.20;1.97;;;;;;;;;;4983847;28;20217;-75
2022/10/17 02:30:59;;;;;;;3.73;1.90;;;;;;;;;;4991153;28;20232;-76
2022/10/17 02:33:31;;;;;;;1.90;1.77;;;;;;;;;;4973868;28;21540;-75
2022/10/17 02:35:59;;;;;;;4.30;2.00;;;;;;;;;;4977467;28;20225;-75
2022/10/17 02:38:29;;;;;;;2.23;2.03;;;;;;;;;;4966278;28;20232;-75
2022/10/17 02:40:57;;;;;;;1.73;1.63;;;;;;;;;;4977662;28;20222;-75
2022/10/17 02:43:25;;;;;;;3.27;2.00;;;;;;;;;;4994216;28;20693;-74
2022/10/17 02:45:51;;;;;;;1.83;1.73;;;;;;;;;;4975931;28;20225;-75
2022/10/17 02:48:27;;;;;;;1.80;1.70;;;;;;;;;;4992703;28;20278;-75
2022/10/17 02:51:12;;;;;;;2.17;1.97;;;;;;;;;;4993299;28;20328;-75
2022/10/17 02:53:49;;;;;;;1.87;1.70;;;;;;;;;;4978116;28;20220;-75
2022/10/17 02:56:17;;;;;;;2.90;1.87;;;;;;;;;;4998660;28;20225;-76
2022/10/17 02:58:44;;;;;;;3.63;1.93;;;;;;;;;;4994533;28;20213;-75
2022/10/17 03:01:13;;;;;;;2.13;1.93;;;;;;;;;;4990529;28;20654;-75
2022/10/17 03:03:38;;;;;;;2.27;1.87;;;;;;;;;;5000011;28;20228;-75
2022/10/17 03:06:04;;;;;;;4.03;1.80;;;;;;;;;;4974748;28;20222;-75
2022/10/17 03:08:32;;;;;;;2.03;1.83;;;;;;;;;;4981647;28;20251;-75
2022/10/17 03:10:58;;;;;;;3.53;1.97;;;;;;;;;;5000610;28;20225;-75
2022/10/17 03:13:26;;;;;;;2.40;1.90;;;;;;;;;;5002474;28;20222;-74
2022/10/17 03:15:51;;;;;;;2.10;1.90;;;;;;;;;;4971083;28;20314;-76
2022/10/17 03:18:17;;;;;;;1.93;1.83;;;;;;;;;;4996340;28;20228;-75
2022/10/17 03:20:47;;;;;;;4.43;3.13;;;;;;;;;;5000986;28;20311;-76
2022/10/17 03:23:13;;;;;;;2.30;2.10;;;;;;;;;;4971445;28;20216;-75
2022/10/17 03:25:41;;;;;;;2.70;2.00;;;;;;;;;;4979728;28;20280;-75
2022/10/17 03:28:08;;;;;;;4.50;2.43;;;;;;;;;;4983668;28;20226;-75
2022/10/17 03:30:33;;;;;;;2.27;2.17;;;;;;;;;;4981430;28;20220;-75
2022/10/17 03:33:01;;;;;;;2.20;2.00;;;;;;;;;;4991226;28;20569;-75
2022/10/17 03:35:32;;;;;;;2.20;2.10;;;;;;;;;;4978513;28;20288;-74
2022/10/17 03:37:58;;;;;;;2.37;2.17;;;;;;;;;;4993258;28;20228;-74
2022/10/17 03:40:28;;;;;;;2.47;2.13;;;;;;;;;;4973075;28;20218;-74
2022/10/17 03:42:53;;;;;;;2.50;2.30;;;;;;;;;;5004272;28;20229;-75
2022/10/17 03:45:19;;;;;;;2.07;1.97;;;;;;;;;;4998627;28;20218;-74
2022/10/17 03:47:48;;;;;;;2.50;2.30;;;;;;;;;;4985622;28;20233;-75
2022/10/17 03:50:14;;;;;;;2.33;2.00;;;;;;;;;;4979801;28;20228;-75
2022/10/17 03:52:46;;;;;;;1.93;1.80;;;;;;;;;;4984649;28;20228;-75
2022/10/17 03:55:12;;;;;;;2.20;2.00;;;;;;;;;;5001987;28;20757;-75
2022/10/17 03:57:37;;;;;;;1.97;1.83;;;;;;;;;;4992265;28;20284;-75
2022/10/17 04:00:05;;;;;;;2.30;1.83;;;;;;;;;;4988297;28;20246;-76
2022/10/17 04:02:44;;;;;;;3.60;2.30;;;;;;;;;;5000929;28;20701;-74
2022/10/17 04:05:16;;;;;;;2.33;1.97;;;;;;;;;;5001680;28;20602;-75
2022/10/17 04:07:41;;;;;;;4.30;1.80;;;;;;;;;;4965067;28;20230;-75
2022/10/17 04:10:10;;;;;;;2.00;1.87;;;;;;;;;;5000587;28;20226;-75
2022/10/17 04:12:36;;;;;;;2.57;2.00;;;;;;;;;;4991651;28;20228;-75
2022/10/17 04:15:02;;;;;;;1.87;1.77;;;;;;;;;;4981964;28;20229;-75
2022/10/17 04:17:29;;;;;;;1.70;1.60;;;;;;;;;;4973194;28;21218;-73
2022/10/17 04:19:55;;;;;;;2.10;2.00;;;;;;;;;;4971612;28;20229;-75
2022/10/17 04:22:21;;;;;;;2.00;1.90;;;;;;;;;;4983347;28;20308;-75
2022/10/17 04:24:50;;;;;;;2.90;1.80;;;;;;;;;;4973613;28;20222;-74
2022/10/17 04:27:39;;;;;;;2.30;2.03;;;;;;;;;;4993211;28;20442;-75
2022/10/17 04:30:06;;;;;;;1.50;1.50;;;;;;;;;;4969513;28;20229;-75
2022/10/17 04:32:37;;;;;;;2.53;2.33;;;;;;;;;;4979569;28;20220;-75
2022/10/17 04:35:21;;;;;;;2.43;1.70;;;;;;;;;;4988177;28;20279;-75
2022/10/17 04:37:52;;;;;;;2.93;1.80;;;;;;;;;;4983076;28;21473;-75
2022/10/17 04:40:21;;;;;;;2.13;1.93;;;;;;;;;;4985432;28;20275;-75
2022/10/17 04:42:49;;;;;;;2.83;1.87;;;;;;;;;;4978992;28;20226;-76
2022/10/17 04:45:20;;;;;;;2.00;1.90;;;;;;;;;;4975879;28;20266;-75
2022/10/17 04:47:52;;;;;;;1.93;1.83;;;;;;;;;;4979885;28;20221;-73
2022/10/17 04:50:20;;;;;;;2.17;1.97;;;;;;;;;;4985556;28;20252;-76
2022/10/17 04:53:08;;;;;;;2.33;2.13;;;;;;;;;;4992308;28;20213;-75
2022/10/17 04:55:37;;;;;;;2.93;2.20;;;;;;;;;;5007509;28;20225;-74
2022/10/17 04:58:02;;;;;;;3.80;3.10;;;;;;;;;;4989783;28;20236;-76
2022/10/17 05:00:29;;;;;;;2.83;2.60;;;;;;;;;;4968949;28;20229;-75
2022/10/17 05:03:11;;;;;;;4.37;3.00;;;;;;;;;;4983073;28;20486;-75
2022/10/17 05:05:40;;;;;;;3.20;2.90;;;;;;;;;;4967637;28;20302;-75
2022/10/17 05:08:06;;;;;;;3.43;3.17;;;;;;;;;;4974337;28;20236;-75
2022/10/17 05:10:37;;;;;;;4.30;2.80;;;;;;;;;;4979094;28;20227;-76
2022/10/17 05:13:06;;;;;;;6.47;2.70;;;;;;;;;;4959306;28;20243;-74
2022/10/17 05:15:39;;;;;;;4.20;2.97;;;;;;;;;;4982642;28;20225;-74
2022/10/17 05:18:04;;;;;;;2.43;2.33;;;;;;;;;;4991499;28;20281;-75
2022/10/17 05:20:30;;;;;;;4.70;2.53;;;;;;;;;;4972872;28;20315;-74
2022/10/17 05:22:58;;;;;;;2.63;2.43;;;;;;;;;;4992884;28;20232;-75
2022/10/17 05:25:27;;;;;;;2.57;2.37;;;;;;;;;;4992421;28;20618;-75
2022/10/17 05:27:53;;;;;;;2.70;2.50;;;;;;;;;;4995194;28;20324;-76
2022/10/17 05:30:18;;;;;;;4.00;3.10;;;;;;;;;;4993409;28;20255;-75
2022/10/17 05:32:46;;;;;;;3.20;2.83;;;;;;;;;;4978034;28;20235;-74
2022/10/17 05:35:14;;;;;;;3.47;2.57;;;;;;;;;;4981924;28;20250;-75
2022/10/17 05:37:40;;;;;;;2.80;2.60;;;;;;;;;;4978401;28;20740;-74
2022/10/17 05:40:09;;;;;;;5.83;2.67;;;;;;;;;;4965187;28;20209;-75
2022/10/17 05:42:37;;;;;;;2.93;2.73;;;;;;;;;;4995568;28;20219;-77
2022/10/17 05:45:05;;;;;;;3.27;2.70;;;;;;;;;;4994399;28;20221;-75
2022/10/17 05:47:31;;;;;;;3.30;3.00;;;;;;;;;;4985883;28;20260;-74
2022/10/17 05:50:02;;;;;;;2.90;2.70;;;;;;;;;;4963275;28;20910;-74
2022/10/17 05:52:43;;;;;;;3.50;2.77;;;;;;;;;;4989965;28;20219;-74
2022/10/17 05:55:16;;;;;;;3.40;3.10;;;;;;;;;;4994784;28;20221;-74
2022/10/17 05:57:43;;;;;;;3.27;2.97;;;;;;;;;;4981958;28;20230;-75
2022/10/17 06:00:16;;;;;;;3.50;3.20;;;;;;;;;;4992823;28;20696;-74
2022/10/17 06:02:48;;;;;;;3.17;2.97;;;;;;;;;;4959060;28;20226;-76
2022/10/17 06:05:17;;;;;;;5.07;3.00;;;;;;;;;;4982171;28;20649;-75
2022/10/17 06:07:43;;;;;;;3.17;2.87;;;;;;;;;;4960903;28;20316;-76
2022/10/17 06:10:11;;;;;;;3.07;2.87;;;;;;;;;;4995434;28;20233;-76
2022/10/17 06:12:38;;;;;;;3.83;3.20;;;;;;;;;;4990125;28;20247;-75
2022/10/17 06:15:04;;;;;;;3.10;2.70;;;;;;;;;;4972535;28;20699;-76
2022/10/17 06:17:31;;;;;;;3.37;2.50;;;;;;;;;;4990773;28;20236;-76
2022/10/17 06:20:00;;;;;;;3.13;2.90;;;;;;;;;;4986558;28;20233;-76
2022/10/17 06:22:26;;;;;;;3.27;2.97;;;;;;;;;;4995902;28;20228;-75
2022/10/17 06:24:55;;;;;;;3.47;2.93;;;;;;;;;;4982360;28;20581;-76
2022/10/17 06:27:21;;;;;;;3.50;3.30;;;;;;;;;;4994412;28;20282;-75
2022/10/17 06:29:50;;;;;;;3.83;3.53;;;;;;;;;;5001789;28;20224;-75
2022/10/17 06:32:16;;;;;;;5.77;4.03;;;;;;;;;;5001737;28;20232;-75
2022/10/17 06:34:44;;;;;;;6.47;3.70;;;;;;;;;;4965181;28;20225;-75
2022/10/17 06:37:15;;;;;;;6.43;3.80;;;;;;;;;;4960078;28;20229;-74
2022/10/17 06:39:42;;;;;;;4.13;3.70;;;;;;;;;;5000424;28;20253;-76
2022/10/17 06:42:12;;;;;;;6.20;5.30;;;;;;;;;;5011145;28;20219;-75
2022/10/17 06:44:54;;;;;;;14.43;13.03;;;;;;;;;;4979520;28;20230;-75
2022/10/17 06:47:40;;;;;;;5.57;4.43;;;;;;;;;;4992363;28;20229;-75
2022/10/17 06:50:23;;;;;;;4.37;4.00;;;;;;;;;;5002639;28;20231;-75
2022/10/17 06:53:07;;;;;;;4.57;4.17;;;;;;;;;;4996465;28;20224;-74
2022/10/17 06:56:07;;;;;;;4.17;3.87;;;;;;;;;;4996426;28;20652;-76
2022/10/17 06:58:45;;;;;;;4.13;3.90;;;;;;;;;;4982285;28;20233;-75
2022/10/17 07:01:25;;;;;;;4.40;3.83;;;;;;;;;;4968690;28;20221;-75
2022/10/17 07:03:57;;;;;;;5.00;3.70;;;;;;;;;;4982289;28;20233;-76
2022/10/17 07:06:23;;;;;;;4.40;4.10;;;;;;;;;;5012179;28;20221;-75
2022/10/17 07:08:49;;;;;;;4.20;3.80;;;;;;;;;;4959923;28;20232;-76
2022/10/17 07:11:18;;;;;;;4.67;3.50;;;;;;;;;;4962806;28;20241;-76
2022/10/17 07:13:44;;;;;;;4.17;3.37;;;;;;;;;;4980788;28;20237;-78
2022/10/17 07:16:10;;;;;;;3.47;3.27;;;;;;;;;;4986447;28;20225;-76
2022/10/17 07:18:40;;;;;;;4.07;3.73;;;;;;;;;;4977256;28;20770;-75
2022/10/17 07:21:08;;;;;;;3.30;3.00;;;;;;;;;;5006239;28;20309;-75
2022/10/17 07:23:40;;;;;;;3.20;2.90;;;;;;;;;;5001736;28;20228;-75
2022/10/17 07:26:07;;;;;;;3.67;3.43;;;;;;;;;;4988550;28;20769;-74
2022/10/17 07:28:35;;;;;;;3.03;2.83;;;;;;;;;;4968460;28;20316;-73
2022/10/17 07:31:11;;;;;;;4.70;2.97;;;;;;;;;;4987745;28;20228;-74
2022/10/17 07:33:37;;;;;;;2.30;2.20;;;;;;;;;;4964709;28;20643;-73
2022/10/17 07:36:03;;;;;;;2.75;2.55;;;;;;;;;;4984226;28;20240;-73
2022/10/17 07:38:31;;;;;;;2.92;2.72;;;;;;;;;;4989824;28;20320;-73
2022/10/17 07:41:00;;;;;;;3.00;2.70;;;;;;;;;;4990904;28;20237;-75
2022/10/17 07:43:29;;;;;;;2.78;2.50;;;;;;;;;;4983677;28;20217;-73
2022/10/17 07:45:57;;;;;;;3.07;2.80;;;;;;;;;;4977314;28;20230;-73
2022/10/17 07:48:26;;;;;;;3.42;2.80;;;;;;;;;;4995409;28;20271;-76
2022/10/17 07:50:51;;;;;;;2.35;2.25;;;;;;;;;;4993599;28;20225;-74
2022/10/17 07:53:17;;;;;;;3.38;2.13;;;;;;;;;;4975142;28;20703;-73
2022/10/17 07:55:45;;;;;;;2.22;2.10;;;;;;;;;;4979105;28;20233;-74
2022/10/17 07:58:11;;;;;;;6.38;2.72;;;;;;;;;;4973205;28;20229;-74
2022/10/17 08:00:36;;;;;;;2.55;2.35;;;;;;;;;;4979222;28;20703;-76
2022/10/17 08:03:02;;;;;;;2.20;2.00;;;;;;;;;;4979029;28;20233;-74
2022/10/17 08:05:30;;;;;;;2.17;2.08;;;;;;;;;;4969574;28;20217;-74
2022/10/17 08:07:56;;;;;;;2.85;1.85;;;;;;;;;;4995595;28;20232;-75
2022/10/17 08:10:29;;;;;;;2.17;1.98;;;;;;;;;;4988378;28;20229;-75
2022/10/17 08:12:57;;;;;;;9.70;1.90;;;;;;;;;;4989317;28;20774;-74
2022/10/17 08:15:26;;;;;;;1.88;1.77;;;;;;;;;;4996741;28;20976;-76
2022/10/17 08:17:54;;;;;;;3.83;2.17;;;;;;;;;;4993808;28;20229;-75
2022/10/17 08:20:20;;;;;;;1.98;1.80;;;;;;;;;;4973088;28;20710;-76
2022/10/17 08:22:52;;;;;;;2.00;1.85;;;;;;;;;;4987373;28;20202;-75
2022/10/17 08:25:20;;;;;;;1.85;1.75;;;;;;;;;;5002729;28;20217;-75
2022/10/17 08:27:48;;;;;;;2.00;1.85;;;;;;;;;;4999852;28;20229;-75
2022/10/17 08:30:14;;;;;;;1.75;1.65;;;;;;;;;;4993320;28;20224;-75
2022/10/17 08:32:42;;;;;;;5.47;2.03;;;;;;;;;;5001115;28;20225;-75
2022/10/17 08:35:09;;;;;;;5.13;2.10;;;;;;;;;;4990456;28;20222;-75
2022/10/17 08:37:35;;;;;;;1.73;1.63;;;;;;;;;;4991135;28;20283;-75
2022/10/17 08:40:00;;;;;;;2.10;2.00;;;;;;;;;;4990128;28;20236;-75
2022/10/17 08:43:02;;;;;;;2.38;1.90;;;;;;;;;;4987833;28;20221;-75
2022/10/17 08:45:34;;;;;;;3.85;2.10;;;;;;;;;;4992511;28;20278;-72
2022/10/17 08:48:04;;;;;;;2.45;2.10;;;;;;;;;;4997760;28;20233;-75
2022/10/17 08:50:32;;;;;;;1.98;1.70;;;;;;;;;;4995610;28;20228;-75
2022/10/17 08:53:01;;;;;;;2.30;1.80;;;;;;;;;;4992614;28;20774;-77
2022/10/17 08:55:38;;;;;;;2.13;2.00;;;;;;;;;;5006795;28;20213;-76
2022/10/17 08:58:25;;;;;;;2.70;1.98;;;;;;;;;;5005324;28;20233;-76
2022/10/17 09:01:22;;;;;;;2.20;2.00;;;;;;;;;;4994210;28;20236;-76
2022/10/17 09:04:19;;;;;;;5.25;1.90;;;;;;;;;;5006364;28;20316;-76
2022/10/17 09:06:54;;;;;;;4.45;1.90;;;;;;;;;;5002923;28;20228;-75
2022/10/17 09:09:52;;;;;;;2.42;1.92;;;;;;;;;;4987651;28;20220;-76
2022/10/17 09:12:20;;;;;;;3.03;2.05;;;;;;;;;;4982889;28;20588;-75
2022/10/17 09:15:12;;;;;;;1.90;1.80;;;;;;;;;;5011550;28;20232;-76
2022/10/17 09:17:49;;;;;;;2.22;1.70;;;;;;;;;;4995955;28;20677;-77
2022/10/17 09:20:16;;;;;;;1.88;1.70;;;;;;;;;;4975548;28;20251;-75
2022/10/17 09:22:55;;;;;;;2.28;1.83;;;;;;;;;;4981229;28;20684;-75
2022/10/17 09:25:21;;;;;;;3.17;1.65;;;;;;;;;;5001934;28;20239;-75
2022/10/17 09:27:48;;;;;;;1.60;1.50;;;;;;;;;;4979692;28;20229;-76
2022/10/17 09:30:46;;;;;;;2.03;1.85;;;;;;;;;;4991770;28;20307;-74
2022/10/17 09:33:16;;;;;;;1.70;1.60;;;;;;;;;;4984697;28;20220;-75
2022/10/17 09:35:47;;;;;;;2.45;1.70;;;;;;;;;;4986002;28;20240;-75
2022/10/17 09:38:20;;;;;;;2.20;1.70;;;;;;;;;;4957270;28;20727;-75
2022/10/17 09:40:54;;;;;;;2.10;1.60;;;;;;;;;;4996734;28;20220;-75
2022/10/17 09:43:20;;;;;;;2.35;1.88;;;;;;;;;;4976387;28;20228;-74
2022/10/17 09:45:58;;;;;;;5.18;1.80;;;;;;;;;;4980944;28;20222;-75
2022/10/17 09:48:40;;;;;;;2.15;1.85;;;;;;;;;;4969729;28;20217;-75
2022/10/17 09:51:05;;;;;;;3.55;1.75;;;;;;;;;;4996702;28;20229;-74
2022/10/17 09:54:02;;;;;;;1.90;1.80;;;;;;;;;;4962580;28;20228;-75
2022/10/17 09:56:27;;;;;;;3.22;1.85;;;;;;;;;;4945443;28;20228;-74
2022/10/17 09:58:56;;;;;;;1.90;1.80;;;;;;;;;;5009497;28;20236;-75
2022/10/17 10:01:25;;;;;;;1.90;1.70;;;;;;;;;;4978489;28;20275;-74
2022/10/17 10:04:20;;;;;;;2.55;1.80;;;;;;;;;;5001101;28;20715;-77
2022/10/17 10:07:03;;;;;;;2.10;1.80;;;;;;;;;;4969522;28;20251;-74
2022/10/17 10:09:38;;;;;;;1.92;1.73;;;;;;;;;;5002352;28;20243;-74
2022/10/17 10:12:08;;;;;;;2.45;1.80;;;;;;;;;;4988143;28;20252;-74
2022/10/17 10:14:38;;;;;;;1.83;1.70;;;;;;;;;;4960157;28;20221;-74
2022/10/17 10:17:05;;;;;;;9.07;2.05;;;;;;;;;;4990676;28;20229;-74
2022/10/17 10:19:32;;;;;;;3.75;1.50;;;;;;;;;;4960533;28;20777;-75
2022/10/17 10:21:59;;;;;;;1.65;1.55;;;;;;;;;;4990289;28;20229;-74
2022/10/17 10:24:27;;;;;;;2.00;1.80;;;;;;;;;;5002801;28;20225;-74
2022/10/17 10:26:59;;;;;;;2.05;1.42;;;;;;;;;;4985276;28;20605;-74
2022/10/17 10:29:37;;;;;;;2.35;1.73;;;;;;;;;;4977933;28;20225;-74
2022/10/17 10:32:14;;;;;;;2.50;2.10;;;;;;;;;;5003146;28;20225;-75
2022/10/17 10:34:49;;;;;;;2.17;1.98;;;;;;;;;;4985221;28;20244;-74
2022/10/17 10:37:17;;;;;;;3.40;2.20;;;;;;;;;;4989536;28;20217;-75
2022/10/17 10:39:48;;;;;;;2.35;1.75;;;;;;;;;;4971437;28;20241;-75
2022/10/17 10:42:38;;;;;;;2.00;1.70;;;;;;;;;;4979795;28;20217;-74
2022/10/17 10:45:20;;;;;;;4.15;1.77;;;;;;;;;;4979460;28;20217;-75
2022/10/17 10:47:55;;;;;;;2.92;1.55;;;;;;;;;;4983443;28;20234;-75
2022/10/17 10:50:39;;;;;;;1.85;1.70;;;;;;;;;;5002409;28;20313;-75
2022/10/17 10:53:44;;;;;;;4.60;1.92;;;;;;;;;;4990952;28;20241;-75
2022/10/17 10:56:20;;;;;;;2.35;1.80;;;;;;;;;;4990799;28;20307;-75
2022/10/17 10:58:57;;;;;;;2.70;2.00;;;;;;;;;;5006996;28;20252;-74
2022/10/17 11:01:41;;;;;;;2.60;1.88;;;;;;;;;;4967613;28;20221;-74
2022/10/17 11:04:29;;;;;;;2.35;1.50;;;;;;;;;;4989616;28;20287;-75
2022/10/17 11:06:59;;;;;;;2.03;1.65;;;;;;;;;;4995507;28;20233;-75
2022/10/17 11:09:41;;;;;;;2.58;1.73;;;;;;;;;;4996221;28;20366;-74
2022/10/17 11:12:31;;;;;;;2.05;1.88;;;;;;;;;;4994347;28;20216;-73
2022/10/17 11:15:02;;;;;;;3.05;1.90;;;;;;;;;;4998878;28;20363;-75
2022/10/17 11:17:56;;;;;;;1.83;1.70;;;;;;;;;;4991453;28;20287;-73
2022/10/17 11:20:45;;;;;;;3.20;1.70;;;;;;;;;;4975490;28;20213;-75
2022/10/17 11:23:19;;;;;;;3.08;1.80;;;;;;;;;;5007208;28;20670;-72
2022/10/17 11:25:45;;;;;;;5.43;1.88;;;;;;;;;;4981808;28;20304;-75
2022/10/17 11:28:18;;;;;;;2.08;1.95;;;;;;;;;;4979890;28;20214;-75
2022/10/17 11:31:02;;;;;;;1.92;1.70;;;;;;;;;;4976412;28;20309;-75
2022/10/17 11:34:05;;;;;;;2.38;1.75;;;;;;;;;;4990973;28;20234;-74
2022/10/17 11:36:33;;;;;;;2.88;1.75;;;;;;;;;;4961932;28;20233;-75
2022/10/17 11:39:04;;;;;;;2.60;1.88;;;;;;;;;;4976643;28;20237;-75
2022/10/17 11:41:43;;;;;;;2.58;1.70;;;;;;;;;;4975279;28;20230;-75
2022/10/17 11:44:20;;;;;;;5.25;2.10;;;;;;;;;;4989969;28;20676;-75
2022/10/17 11:46:50;;;;;;;3.15;2.35;;;;;;;;;;4993674;28;20295;-72
2022/10/17 11:49:19;;;;;;;2.67;2.47;;;;;;;;;;4976187;28;20764;-75
2022/10/17 11:51:53;;;;;;;3.08;2.83;;;;;;;;;;4979350;28;20265;-75
2022/10/17 11:54:36;;;;;;;6.97;5.00;;;;;;;;;;4986756;28;20221;-75
2022/10/17 11:57:36;;;;;;;6.25;5.32;;;;;;;;;;4981973;28;20324;-75
2022/10/17 12:00:24;;;;;;;9.85;5.40;;;;;;;;;;4990529;28;20222;-74
2022/10/17 12:02:50;;;;;;;4.78;4.30;;;;;;;;;;4995673;28;20225;-74
2022/10/17 12:06:01;;;;;;;5.03;3.08;;;;;;;;;;4989611;28;20594;-74
2022/10/17 12:08:40;;;;;;;4.03;3.25;;;;;;;;;;4989910;28;20221;-74
2022/10/17 12:11:33;;;;;;;4.00;2.25;;;;;;;;;;4999624;28;20291;-74
2022/10/17 12:13:59;;;;;;;2.05;1.95;;;;;;;;;;4991088;28;20723;-75
2022/10/17 12:16:27;;;;;;;2.75;1.92;;;;;;;;;;4955763;28;20296;-74
2022/10/17 12:19:01;;;;;;;3.45;2.67;;;;;;;;;;5009069;28;20237;-74
2022/10/17 12:21:29;;;;;;;2.20;2.00;;;;;;;;;;4993507;28;20948;-75
2022/10/17 12:23:57;;;;;;;2.00;1.90;;;;;;;;;;4991198;28;20236;-74
2022/10/17 12:26:27;;;;;;;4.32;2.05;;;;;;;;;;5001311;28;20245;-74
2022/10/17 12:28:52;;;;;;;2.97;2.20;;;;;;;;;;4975132;28;20235;-74
2022/10/17 12:31:20;;;;;;;3.20;2.60;;;;;;;;;;4976370;28;20217;-74
2022/10/17 12:33:54;;;;;;;2.70;2.50;;;;;;;;;;5009641;28;20228;-73
2022/10/17 12:36:41;;;;;;;2.60;2.40;;;;;;;;;;4995917;28;20213;-74
2022/10/17 12:39:10;;;;;;;2.78;2.30;;;;;;;;;;5007318;28;20225;-73
2022/10/17 12:41:38;;;;;;;3.75;2.63;;;;;;;;;;4973300;28;20229;-76
2022/10/17 12:44:14;;;;;;;7.53;2.15;;;;;;;;;;5007859;28;20233;-74
2022/10/17 12:46:43;;;;;;;2.78;2.17;;;;;;;;;;4995200;28;20298;-76
2022/10/17 12:49:35;;;;;;;2.55;2.35;;;;;;;;;;5012401;28;20240;-76
2022/10/17 12:52:19;;;;;;;5.43;4.35;;;;;;;;;;4990151;28;20232;-74
2022/10/17 12:54:58;;;;;;;7.68;3.53;;;;;;;;;;4999926;28;20313;-75
2022/10/17 12:57:32;;;;;;;3.90;2.13;;;;;;;;;;4993986;28;20221;-76
2022/10/17 13:00:00;;;;;;;2.53;2.20;;;;;;;;;;4976608;28;20278;-75
2022/10/17 13:02:26;;;;;;;3.55;2.10;;;;;;;;;;4973594;28;20254;-74
2022/10/17 13:04:57;;;;;;;3.90;2.47;;;;;;;;;;4992477;28;20652;-74
2022/10/17 13:07:22;;;;;;;2.50;2.30;;;;;;;;;;4990671;28;21300;-74
2022/10/17 13:09:50;;;;;;;4.43;2.75;;;;;;;;;;4999029;28;20711;-74
2022/10/17 13:12:25;;;;;;;2.67;2.33;;;;;;;;;;4969612;28;20284;-74
2022/10/17 13:14:54;;;;;;;3.05;2.40;;;;;;;;;;4993138;28;20228;-74
2022/10/17 13:17:26;;;;;;;4.20;2.42;;;;;;;;;;4980525;28;20224;-74
2022/10/17 13:19:52;;;;;;;4.38;2.55;;;;;;;;;;5011399;28;20255;-74
2022/10/17 13:22:20;;;;;;;2.45;2.22;;;;;;;;;;4989507;28;20225;-75
2022/10/17 13:24:51;;;;;;;2.50;2.15;;;;;;;;;;4986122;28;20617;-75
2022/10/17 13:27:31;;;;;;;2.65;2.45;;;;;;;;;;4991850;28;20213;-75
2022/10/17 13:30:00;;;;;;;4.93;2.70;;;;;;;;;;4994293;28;20221;-76
2022/10/17 13:32:35;;;;;;;3.47;2.83;;;;;;;;;;4998079;28;20355;-73
2022/10/17 13:35:08;;;;;;;3.40;3.10;;;;;;;;;;5001966;28;20236;-76
2022/10/17 13:37:34;;;;;;;3.80;3.15;;;;;;;;;;4970746;28;20244;-74
2022/10/17 13:40:03;;;;;;;9.07;3.20;;;;;;;;;;4947299;28;20331;-74
2022/10/17 13:42:37;;;;;;;3.30;3.10;;;;;;;;;;4978807;28;20225;-73
2022/10/17 13:45:03;;;;;;;4.32;3.17;;;;;;;;;;4993398;28;20231;-75
2022/10/17 13:47:32;;;;;;;4.47;3.10;;;;;;;;;;4965048;28;20217;-74
2022/10/17 13:49:58;;;;;;;4.47;3.38;;;;;;;;;;4972655;28;20225;-74
2022/10/17 13:52:27;;;;;;;3.42;3.13;;;;;;;;;;4999330;28;20225;-75
2022/10/17 13:54:55;;;;;;;3.88;3.53;;;;;;;;;;4997944;28;20295;-75
2022/10/17 13:57:23;;;;;;;5.25;3.58;;;;;;;;;;4973962;28;20218;-74
2022/10/17 14:00:03;;;;;;;3.58;3.28;;;;;;;;;;4973256;28;20295;-75
2022/10/17 14:02:42;;;;;;;3.78;3.47;;;;;;;;;;4974404;28;20225;-74
2022/10/17 14:05:15;;;;;;;3.63;3.30;;;;;;;;;;4954715;28;20227;-76
2022/10/17 14:07:51;;;;;;;5.50;3.80;;;;;;;;;;4974405;28;20225;-73
2022/10/17 14:10:27;;;;;;;5.78;4.07;;;;;;;;;;4975001;28;20626;-74
2022/10/17 14:12:57;;;;;;;4.28;3.97;;;;;;;;;;5010843;28;20719;-74
2022/10/17 14:15:25;;;;;;;5.07;4.05;;;;;;;;;;4995790;28;20363;-74
2022/10/17 14:18:03;;;;;;;4.80;4.28;;;;;;;;;;4972150;28;20780;-75
2022/10/17 14:20:29;;;;;;;5.95;4.00;;;;;;;;;;4972070;28;20236;-74
2022/10/17 14:22:55;;;;;;;4.57;4.18;;;;;;;;;;4982635;28;20228;-74
2022/10/17 14:25:29;;;;;;;4.63;3.67;;;;;;;;;;4956599;28;20303;-76
2022/10/17 14:28:06;;;;;;;6.93;4.55;;;;;;;;;;4991569;28;20225;-76
2022/10/17 14:30:34;;;;;;;4.40;3.97;;;;;;;;;;4991196;28;20228;-74
2022/10/17 14:33:05;;;;;;;4.03;3.72;;;;;;;;;;4977863;28;20224;-75
2022/10/17 14:35:33;;;;;;;4.35;4.05;;;;;;;;;;4972328;28;21004;-76
2022/10/17 14:38:00;;;;;;;4.80;4.40;;;;;;;;;;4980261;28;20300;-75
2022/10/17 14:40:27;;;;;;;4.82;4.43;;;;;;;;;;5000453;28;20620;-74
2022/10/17 14:42:56;;;;;;;5.55;4.78;;;;;;;;;;4998325;28;20237;-75
2022/10/17 14:45:24;;;;;;;6.07;3.97;;;;;;;;;;4975783;28;20217;-75
2022/10/17 14:47:52;;;;;;;4.57;4.18;;;;;;;;;;4993645;28;20222;-74
2022/10/17 14:50:20;;;;;;;5.20;4.70;;;;;;;;;;4974269;28;20596;-74
2022/10/17 14:53:04;;;;;;;4.68;4.15;;;;;;;;;;4993112;28;20755;-74
2022/10/17 14:55:31;;;;;;;5.75;4.43;;;;;;;;;;4983116;28;20216;-74
2022/10/17 14:57:56;;;;;;;4.97;4.45;;;;;;;;;;4982471;28;20337;-74
2022/10/17 15:00:22;;;;;;;5.50;4.97;;;;;;;;;;4994238;28;20269;-73
2022/10/17 15:02:53;;;;;;;5.13;4.72;;;;;;;;;;4989295;28;20280;-73
2022/10/17 15:05:22;;;;;;;5.20;4.75;;;;;;;;;;5002802;28;20213;-74
2022/10/17 15:07:47;;;;;;;5.13;4.72;;;;;;;;;;4993573;28;20394;-74
2022/10/17 15:10:21;;;;;;;5.78;4.75;;;;;;;;;;4993148;28;20707;-74
2022/10/17 15:12:47;;;;;;;5.55;5.13;;;;;;;;;;4996699;28;20228;-74
2022/10/17 15:15:15;;;;;;;5.35;4.95;;;;;;;;;;5002155;28;20299;-74